sensor_id;sensor_type;location;lat;lon;timestamp;P1;durP1;ratioP1;P2;durP2;ratioP2
75320;SDS011;68337;52.196;5.660;2024-03-17T00:00:42;3.08;;;2.08;;
75320;SDS011;68337;52.196;5.660;2024-03-17T00:03:08;5.20;;;2.10;;
75320;SDS011;68337;52.196;5.660;2024-03-17T00:05:34;5.07;;;2.53;;
75320;SDS011;68337;52.196;5.660;2024-03-17T00:08:01;2.88;;;2.33;;
75320;SDS011;68337;52.196;5.660;2024-03-17T00:10:30;4.32;;;2.53;;
75320;SDS011;68337;52.196;5.660;2024-03-17T00:12:56;6.63;;;3.22;;
75320;SDS011;68337;52.196;5.660;2024-03-17T00:15:23;7.13;;;2.80;;
75320;SDS011;68337;52.196;5.660;2024-03-17T00:17:52;7.35;;;2.63;;
75320;SDS011;68337;52.196;5.660;2024-03-17T00:20:18;6.20;;;2.35;;
75320;SDS011;68337;52.196;5.660;2024-03-17T00:22:46;2.60;;;2.08;;
75320;SDS011;68337;52.196;5.660;2024-03-17T00:25:14;4.60;;;2.45;;
75320;SDS011;68337;52.196;5.660;2024-03-17T00:27:43;3.60;;;2.72;;
75320;SDS011;68337;52.196;5.660;2024-03-17T00:30:10;6.07;;;2.38;;
75320;SDS011;68337;52.196;5.660;2024-03-17T00:32:39;4.22;;;2.40;;
75320;SDS011;68337;52.196;5.660;2024-03-17T00:35:06;7.80;;;2.42;;
75320;SDS011;68337;52.196;5.660;2024-03-17T00:37:34;4.07;;;2.58;;
75320;SDS011;68337;52.196;5.660;2024-03-17T00:40:00;2.60;;;2.40;;
75320;SDS011;68337;52.196;5.660;2024-03-17T00:42:27;4.60;;;2.67;;
75320;SDS011;68337;52.196;5.660;2024-03-17T00:44:53;3.72;;;2.05;;
75320;SDS011;68337;52.196;5.660;2024-03-17T00:47:18;3.92;;;2.55;;
75320;SDS011;68337;52.196;5.660;2024-03-17T00:49:44;2.45;;;2.25;;
75320;SDS011;68337;52.196;5.660;2024-03-17T00:52:10;6.22;;;2.25;;
75320;SDS011;68337;52.196;5.660;2024-03-17T00:54:35;3.97;;;2.50;;
75320;SDS011;68337;52.196;5.660;2024-03-17T00:57:01;4.72;;;2.30;;
75320;SDS011;68337;52.196;5.660;2024-03-17T00:59:27;6.35;;;2.45;;
75320;SDS011;68337;52.196;5.660;2024-03-17T01:01:53;4.22;;;2.45;;
75320;SDS011;68337;52.196;5.660;2024-03-17T01:04:18;2.72;;;1.92;;
75320;SDS011;68337;52.196;5.660;2024-03-17T01:06:44;3.42;;;2.20;;
75320;SDS011;68337;52.196;5.660;2024-03-17T01:09:10;3.97;;;1.92;;
75320;SDS011;68337;52.196;5.660;2024-03-17T01:11:35;5.78;;;2.03;;
75320;SDS011;68337;52.196;5.660;2024-03-17T01:14:01;4.28;;;2.00;;
75320;SDS011;68337;52.196;5.660;2024-03-17T01:16:27;3.08;;;1.77;;
75320;SDS011;68337;52.196;5.660;2024-03-17T01:18:52;4.45;;;2.13;;
75320;SDS011;68337;52.196;5.660;2024-03-17T01:21:19;2.60;;;1.70;;
75320;SDS011;68337;52.196;5.660;2024-03-17T01:23:46;5.18;;;2.22;;
75320;SDS011;68337;52.196;5.660;2024-03-17T01:26:13;3.40;;;1.98;;
75320;SDS011;68337;52.196;5.660;2024-03-17T01:28:39;4.97;;;2.05;;
75320;SDS011;68337;52.196;5.660;2024-03-17T01:31:06;7.28;;;1.90;;
75320;SDS011;68337;52.196;5.660;2024-03-17T01:33:32;1.95;;;1.83;;
75320;SDS011;68337;52.196;5.660;2024-03-17T01:35:58;3.65;;;1.95;;
75320;SDS011;68337;52.196;5.660;2024-03-17T01:38:23;6.05;;;2.20;;
75320;SDS011;68337;52.196;5.660;2024-03-17T01:40:49;2.33;;;2.10;;
75320;SDS011;68337;52.196;5.660;2024-03-17T01:43:15;3.53;;;2.03;;
75320;SDS011;68337;52.196;5.660;2024-03-17T01:45:41;5.50;;;1.83;;
75320;SDS011;68337;52.196;5.660;2024-03-17T01:48:08;3.22;;;2.03;;
75320;SDS011;68337;52.196;5.660;2024-03-17T01:50:40;5.38;;;1.70;;
75320;SDS011;68337;52.196;5.660;2024-03-17T01:53:06;3.90;;;2.20;;
75320;SDS011;68337;52.196;5.660;2024-03-17T01:55:34;6.05;;;1.90;;
75320;SDS011;68337;52.196;5.660;2024-03-17T01:58:03;5.45;;;2.00;;
75320;SDS011;68337;52.196;5.660;2024-03-17T02:00:35;4.28;;;1.80;;
75320;SDS011;68337;52.196;5.660;2024-03-17T02:03:04;4.50;;;1.80;;
75320;SDS011;68337;52.196;5.660;2024-03-17T02:05:31;6.65;;;2.15;;
75320;SDS011;68337;52.196;5.660;2024-03-17T02:07:56;4.55;;;1.73;;
75320;SDS011;68337;52.196;5.660;2024-03-17T02:10:22;3.70;;;1.95;;
75320;SDS011;68337;52.196;5.660;2024-03-17T02:12:48;3.10;;;2.00;;
75320;SDS011;68337;52.196;5.660;2024-03-17T02:15:14;2.83;;;1.70;;
75320;SDS011;68337;52.196;5.660;2024-03-17T02:17:40;2.80;;;1.90;;
75320;SDS011;68337;52.196;5.660;2024-03-17T02:20:05;3.40;;;2.22;;
75320;SDS011;68337;52.196;5.660;2024-03-17T02:22:34;3.78;;;1.90;;
75320;SDS011;68337;52.196;5.660;2024-03-17T02:25:00;5.45;;;1.95;;
75320;SDS011;68337;52.196;5.660;2024-03-17T02:27:27;5.47;;;2.20;;
75320;SDS011;68337;52.196;5.660;2024-03-17T02:29:52;2.65;;;1.70;;
75320;SDS011;68337;52.196;5.660;2024-03-17T02:32:18;4.07;;;2.08;;
75320;SDS011;68337;52.196;5.660;2024-03-17T02:34:47;5.78;;;1.92;;
75320;SDS011;68337;52.196;5.660;2024-03-17T02:37:13;4.22;;;1.85;;
75320;SDS011;68337;52.196;5.660;2024-03-17T02:39:39;4.10;;;2.17;;
75320;SDS011;68337;52.196;5.660;2024-03-17T02:42:05;7.18;;;2.42;;
75320;SDS011;68337;52.196;5.660;2024-03-17T02:44:33;4.88;;;2.03;;
75320;SDS011;68337;52.196;5.660;2024-03-17T02:47:00;10.18;;;2.15;;
75320;SDS011;68337;52.196;5.660;2024-03-17T02:49:29;4.18;;;2.05;;
75320;SDS011;68337;52.196;5.660;2024-03-17T02:52:04;4.18;;;2.03;;
75320;SDS011;68337;52.196;5.660;2024-03-17T02:54:31;9.30;;;2.40;;
75320;SDS011;68337;52.196;5.660;2024-03-17T02:56:58;5.38;;;2.30;;
75320;SDS011;68337;52.196;5.660;2024-03-17T02:59:24;5.10;;;2.83;;
75320;SDS011;68337;52.196;5.660;2024-03-17T03:01:51;8.32;;;2.38;;
75320;SDS011;68337;52.196;5.660;2024-03-17T03:04:17;5.85;;;2.95;;
75320;SDS011;68337;52.196;5.660;2024-03-17T03:06:42;6.07;;;2.30;;
75320;SDS011;68337;52.196;5.660;2024-03-17T03:09:08;7.38;;;2.75;;
75320;SDS011;68337;52.196;5.660;2024-03-17T03:11:39;6.63;;;2.45;;
75320;SDS011;68337;52.196;5.660;2024-03-17T03:14:05;5.43;;;2.22;;
75320;SDS011;68337;52.196;5.660;2024-03-17T03:16:32;6.85;;;2.88;;
75320;SDS011;68337;52.196;5.660;2024-03-17T03:18:58;11.80;;;2.70;;
75320;SDS011;68337;52.196;5.660;2024-03-17T03:21:24;6.35;;;2.50;;
75320;SDS011;68337;52.196;5.660;2024-03-17T03:23:50;5.18;;;2.80;;
75320;SDS011;68337;52.196;5.660;2024-03-17T03:26:16;5.88;;;3.00;;
75320;SDS011;68337;52.196;5.660;2024-03-17T03:28:43;5.22;;;3.13;;
75320;SDS011;68337;52.196;5.660;2024-03-17T03:31:10;4.07;;;3.03;;
75320;SDS011;68337;52.196;5.660;2024-03-17T03:33:38;6.93;;;3.20;;
75320;SDS011;68337;52.196;5.660;2024-03-17T03:36:09;6.90;;;3.22;;
75320;SDS011;68337;52.196;5.660;2024-03-17T03:38:36;7.00;;;3.35;;
75320;SDS011;68337;52.196;5.660;2024-03-17T03:41:07;6.10;;;3.35;;
75320;SDS011;68337;52.196;5.660;2024-03-17T03:43:34;6.28;;;3.65;;
75320;SDS011;68337;52.196;5.660;2024-03-17T03:46:01;3.95;;;3.17;;
75320;SDS011;68337;52.196;5.660;2024-03-17T03:48:27;5.32;;;3.60;;
75320;SDS011;68337;52.196;5.660;2024-03-17T03:50:53;8.50;;;4.15;;
75320;SDS011;68337;52.196;5.660;2024-03-17T03:53:19;5.55;;;3.30;;
75320;SDS011;68337;52.196;5.660;2024-03-17T03:55:45;6.78;;;3.63;;
75320;SDS011;68337;52.196;5.660;2024-03-17T03:58:11;3.47;;;3.17;;
75320;SDS011;68337;52.196;5.660;2024-03-17T04:00:37;6.40;;;3.72;;
75320;SDS011;68337;52.196;5.660;2024-03-17T04:03:04;7.45;;;4.00;;
75320;SDS011;68337;52.196;5.660;2024-03-17T04:05:30;8.30;;;4.30;;
75320;SDS011;68337;52.196;5.660;2024-03-17T04:07:56;8.88;;;4.15;;
75320;SDS011;68337;52.196;5.660;2024-03-17T04:10:23;6.32;;;3.97;;
75320;SDS011;68337;52.196;5.660;2024-03-17T04:12:50;8.10;;;4.43;;
75320;SDS011;68337;52.196;5.660;2024-03-17T04:15:16;4.32;;;3.75;;
75320;SDS011;68337;52.196;5.660;2024-03-17T04:17:42;7.97;;;4.35;;
75320;SDS011;68337;52.196;5.660;2024-03-17T04:20:07;6.35;;;4.30;;
75320;SDS011;68337;52.196;5.660;2024-03-17T04:22:35;5.00;;;4.07;;
75320;SDS011;68337;52.196;5.660;2024-03-17T04:25:01;7.07;;;4.45;;
75320;SDS011;68337;52.196;5.660;2024-03-17T04:27:28;8.07;;;4.10;;
75320;SDS011;68337;52.196;5.660;2024-03-17T04:29:58;7.85;;;4.25;;
75320;SDS011;68337;52.196;5.660;2024-03-17T04:32:25;11.98;;;5.05;;
75320;SDS011;68337;52.196;5.660;2024-03-17T04:34:52;9.13;;;4.30;;
75320;SDS011;68337;52.196;5.660;2024-03-17T04:37:18;6.75;;;4.53;;
75320;SDS011;68337;52.196;5.660;2024-03-17T04:39:44;8.20;;;5.30;;
75320;SDS011;68337;52.196;5.660;2024-03-17T04:42:11;10.25;;;5.20;;
75320;SDS011;68337;52.196;5.660;2024-03-17T04:44:39;6.47;;;4.70;;
75320;SDS011;68337;52.196;5.660;2024-03-17T04:47:06;7.25;;;4.07;;
75320;SDS011;68337;52.196;5.660;2024-03-17T04:49:40;11.43;;;5.47;;
75320;SDS011;68337;52.196;5.660;2024-03-17T04:52:06;8.63;;;5.30;;
75320;SDS011;68337;52.196;5.660;2024-03-17T04:54:32;9.93;;;6.03;;
75320;SDS011;68337;52.196;5.660;2024-03-17T04:56:58;7.32;;;5.28;;
75320;SDS011;68337;52.196;5.660;2024-03-17T04:59:24;6.10;;;5.38;;
75320;SDS011;68337;52.196;5.660;2024-03-17T05:01:50;10.02;;;5.43;;
75320;SDS011;68337;52.196;5.660;2024-03-17T05:04:16;8.38;;;5.53;;
75320;SDS011;68337;52.196;5.660;2024-03-17T05:06:42;8.35;;;5.35;;
75320;SDS011;68337;52.196;5.660;2024-03-17T05:09:12;9.30;;;5.30;;
75320;SDS011;68337;52.196;5.660;2024-03-17T05:11:38;11.20;;;6.25;;
75320;SDS011;68337;52.196;5.660;2024-03-17T05:14:05;9.15;;;5.93;;
75320;SDS011;68337;52.196;5.660;2024-03-17T05:16:31;10.52;;;6.53;;
75320;SDS011;68337;52.196;5.660;2024-03-17T05:18:57;10.80;;;6.82;;
75320;SDS011;68337;52.196;5.660;2024-03-17T05:21:22;11.85;;;7.65;;
75320;SDS011;68337;52.196;5.660;2024-03-17T05:23:49;13.85;;;7.20;;
75320;SDS011;68337;52.196;5.660;2024-03-17T05:26:15;7.78;;;6.68;;
75320;SDS011;68337;52.196;5.660;2024-03-17T05:28:40;9.48;;;7.65;;
75320;SDS011;68337;52.196;5.660;2024-03-17T05:31:06;10.65;;;7.88;;
75320;SDS011;68337;52.196;5.660;2024-03-17T05:33:32;10.27;;;7.22;;
75320;SDS011;68337;52.196;5.660;2024-03-17T05:35:58;9.95;;;7.45;;
75320;SDS011;68337;52.196;5.660;2024-03-17T05:38:26;13.82;;;8.80;;
75320;SDS011;68337;52.196;5.660;2024-03-17T05:41:00;11.75;;;8.18;;
75320;SDS011;68337;52.196;5.660;2024-03-17T05:43:28;10.90;;;7.30;;
75320;SDS011;68337;52.196;5.660;2024-03-17T05:45:57;11.00;;;8.15;;
75320;SDS011;68337;52.196;5.660;2024-03-17T05:48:23;13.13;;;7.95;;
75320;SDS011;68337;52.196;5.660;2024-03-17T05:50:49;12.65;;;8.88;;
75320;SDS011;68337;52.196;5.660;2024-03-17T05:53:17;14.07;;;8.73;;
75320;SDS011;68337;52.196;5.660;2024-03-17T05:55:43;18.92;;;11.02;;
75320;SDS011;68337;52.196;5.660;2024-03-17T05:58:09;15.88;;;10.57;;
75320;SDS011;68337;52.196;5.660;2024-03-17T06:00:37;13.70;;;10.25;;
75320;SDS011;68337;52.196;5.660;2024-03-17T06:03:04;15.32;;;11.15;;
75320;SDS011;68337;52.196;5.660;2024-03-17T06:05:32;15.70;;;10.82;;
75320;SDS011;68337;52.196;5.660;2024-03-17T06:07:59;19.88;;;12.65;;
75320;SDS011;68337;52.196;5.660;2024-03-17T06:10:28;23.15;;;12.82;;
75320;SDS011;68337;52.196;5.660;2024-03-17T06:12:54;18.33;;;11.88;;
75320;SDS011;68337;52.196;5.660;2024-03-17T06:15:21;24.30;;;12.90;;
75320;SDS011;68337;52.196;5.660;2024-03-17T06:17:48;19.63;;;11.93;;
75320;SDS011;68337;52.196;5.660;2024-03-17T06:20:17;24.38;;;13.25;;
75320;SDS011;68337;52.196;5.660;2024-03-17T06:22:43;19.02;;;12.73;;
75320;SDS011;68337;52.196;5.660;2024-03-17T06:25:08;17.98;;;12.00;;
75320;SDS011;68337;52.196;5.660;2024-03-17T06:27:34;21.05;;;12.95;;
75320;SDS011;68337;52.196;5.660;2024-03-17T06:30:00;21.08;;;13.18;;
75320;SDS011;68337;52.196;5.660;2024-03-17T06:32:29;18.70;;;12.20;;
75320;SDS011;68337;52.196;5.660;2024-03-17T06:34:56;19.08;;;12.07;;
75320;SDS011;68337;52.196;5.660;2024-03-17T06:37:23;21.20;;;12.40;;
75320;SDS011;68337;52.196;5.660;2024-03-17T06:39:49;18.67;;;12.48;;
75320;SDS011;68337;52.196;5.660;2024-03-17T06:42:15;18.35;;;12.10;;
75320;SDS011;68337;52.196;5.660;2024-03-17T06:44:41;19.55;;;12.68;;
75320;SDS011;68337;52.196;5.660;2024-03-17T06:47:07;17.83;;;12.15;;
75320;SDS011;68337;52.196;5.660;2024-03-17T06:49:32;19.10;;;11.95;;
75320;SDS011;68337;52.196;5.660;2024-03-17T06:51:58;18.88;;;11.95;;
75320;SDS011;68337;52.196;5.660;2024-03-17T06:54:24;17.02;;;11.50;;
75320;SDS011;68337;52.196;5.660;2024-03-17T06:56:49;16.15;;;11.50;;
75320;SDS011;68337;52.196;5.660;2024-03-17T06:59:16;16.27;;;11.90;;
75320;SDS011;68337;52.196;5.660;2024-03-17T07:01:42;16.08;;;12.15;;
75320;SDS011;68337;52.196;5.660;2024-03-17T07:04:09;15.32;;;11.30;;
75320;SDS011;68337;52.196;5.660;2024-03-17T07:06:36;13.30;;;10.82;;
75320;SDS011;68337;52.196;5.660;2024-03-17T07:09:02;13.40;;;10.93;;
75320;SDS011;68337;52.196;5.660;2024-03-17T07:11:28;14.90;;;10.98;;
75320;SDS011;68337;52.196;5.660;2024-03-17T07:13:53;14.73;;;10.60;;
75320;SDS011;68337;52.196;5.660;2024-03-17T07:16:19;17.35;;;11.77;;
75320;SDS011;68337;52.196;5.660;2024-03-17T07:18:49;16.05;;;11.07;;
75320;SDS011;68337;52.196;5.660;2024-03-17T07:21:15;15.00;;;11.00;;
75320;SDS011;68337;52.196;5.660;2024-03-17T07:23:41;18.65;;;10.88;;
75320;SDS011;68337;52.196;5.660;2024-03-17T07:26:07;15.88;;;10.73;;
75320;SDS011;68337;52.196;5.660;2024-03-17T07:28:34;14.57;;;10.77;;
75320;SDS011;68337;52.196;5.660;2024-03-17T07:31:00;13.88;;;10.18;;
75320;SDS011;68337;52.196;5.660;2024-03-17T07:33:26;12.80;;;10.77;;
75320;SDS011;68337;52.196;5.660;2024-03-17T07:35:56;11.85;;;9.30;;
75320;SDS011;68337;52.196;5.660;2024-03-17T07:38:25;13.32;;;10.25;;
75320;SDS011;68337;52.196;5.660;2024-03-17T07:43:36;14.18;;;10.60;;
75320;SDS011;68337;52.196;5.660;2024-03-17T07:46:04;12.00;;;10.07;;
75320;SDS011;68337;52.196;5.660;2024-03-17T07:48:32;15.27;;;10.13;;
75320;SDS011;68337;52.196;5.660;2024-03-17T07:51:00;12.95;;;9.35;;
75320;SDS011;68337;52.196;5.660;2024-03-17T07:53:30;11.05;;;9.55;;
75320;SDS011;68337;52.196;5.660;2024-03-17T07:55:58;13.38;;;9.52;;
75320;SDS011;68337;52.196;5.660;2024-03-17T07:58:26;15.35;;;10.45;;
75320;SDS011;68337;52.196;5.660;2024-03-17T08:00:56;13.80;;;9.10;;
75320;SDS011;68337;52.196;5.660;2024-03-17T08:03:24;13.50;;;10.00;;
75320;SDS011;68337;52.196;5.660;2024-03-17T08:05:51;12.73;;;9.20;;
75320;SDS011;68337;52.196;5.660;2024-03-17T08:08:17;11.40;;;9.35;;
75320;SDS011;68337;52.196;5.660;2024-03-17T08:10:43;10.35;;;8.43;;
75320;SDS011;68337;52.196;5.660;2024-03-17T08:13:10;13.07;;;8.63;;
75320;SDS011;68337;52.196;5.660;2024-03-17T08:15:36;9.65;;;8.13;;
75320;SDS011;68337;52.196;5.660;2024-03-17T08:18:02;12.02;;;8.25;;
75320;SDS011;68337;52.196;5.660;2024-03-17T08:20:29;9.77;;;7.85;;
75320;SDS011;68337;52.196;5.660;2024-03-17T08:22:55;12.55;;;8.73;;
75320;SDS011;68337;52.196;5.660;2024-03-17T08:25:21;9.85;;;8.18;;
75320;SDS011;68337;52.196;5.660;2024-03-17T08:27:46;8.95;;;8.00;;
75320;SDS011;68337;52.196;5.660;2024-03-17T08:30:12;11.95;;;7.93;;
75320;SDS011;68337;52.196;5.660;2024-03-17T08:32:38;9.25;;;7.25;;
75320;SDS011;68337;52.196;5.660;2024-03-17T08:35:04;10.90;;;7.65;;
75320;SDS011;68337;52.196;5.660;2024-03-17T08:37:31;7.82;;;6.50;;
75320;SDS011;68337;52.196;5.660;2024-03-17T08:39:57;8.57;;;7.35;;
75320;SDS011;68337;52.196;5.660;2024-03-17T08:42:22;9.80;;;6.72;;
75320;SDS011;68337;52.196;5.660;2024-03-17T08:44:48;9.02;;;6.63;;
75320;SDS011;68337;52.196;5.660;2024-03-17T08:47:14;7.55;;;6.20;;
75320;SDS011;68337;52.196;5.660;2024-03-17T08:49:40;10.35;;;6.85;;
75320;SDS011;68337;52.196;5.660;2024-03-17T08:52:06;8.32;;;6.97;;
75320;SDS011;68337;52.196;5.660;2024-03-17T08:54:32;8.10;;;6.15;;
75320;SDS011;68337;52.196;5.660;2024-03-17T08:56:58;6.97;;;6.15;;
75320;SDS011;68337;52.196;5.660;2024-03-17T08:59:23;8.13;;;6.30;;
75320;SDS011;68337;52.196;5.660;2024-03-17T09:01:49;9.10;;;6.07;;
75320;SDS011;68337;52.196;5.660;2024-03-17T09:04:15;7.90;;;6.18;;
75320;SDS011;68337;52.196;5.660;2024-03-17T09:06:40;10.20;;;6.35;;
75320;SDS011;68337;52.196;5.660;2024-03-17T09:09:07;8.40;;;6.00;;
75320;SDS011;68337;52.196;5.660;2024-03-17T09:11:33;6.43;;;5.65;;
75320;SDS011;68337;52.196;5.660;2024-03-17T09:13:58;6.78;;;6.07;;
75320;SDS011;68337;52.196;5.660;2024-03-17T09:16:25;6.97;;;5.43;;
75320;SDS011;68337;52.196;5.660;2024-03-17T09:18:53;8.65;;;5.43;;
75320;SDS011;68337;52.196;5.660;2024-03-17T09:21:19;8.70;;;5.93;;
75320;SDS011;68337;52.196;5.660;2024-03-17T09:23:45;7.03;;;6.32;;
75320;SDS011;68337;52.196;5.660;2024-03-17T09:26:11;6.13;;;5.43;;
75320;SDS011;68337;52.196;5.660;2024-03-17T09:28:39;10.95;;;6.03;;
75320;SDS011;68337;52.196;5.660;2024-03-17T09:31:05;6.50;;;5.57;;
75320;SDS011;68337;52.196;5.660;2024-03-17T09:33:32;6.75;;;6.03;;
75320;SDS011;68337;52.196;5.660;2024-03-17T09:36:00;6.80;;;5.78;;
75320;SDS011;68337;52.196;5.660;2024-03-17T09:38:26;8.32;;;6.55;;
75320;SDS011;68337;52.196;5.660;2024-03-17T09:40:52;8.02;;;6.03;;
75320;SDS011;68337;52.196;5.660;2024-03-17T09:43:20;7.15;;;5.93;;
75320;SDS011;68337;52.196;5.660;2024-03-17T09:45:46;10.18;;;5.50;;
75320;SDS011;68337;52.196;5.660;2024-03-17T09:48:14;7.15;;;5.63;;
75320;SDS011;68337;52.196;5.660;2024-03-17T09:50:44;10.75;;;6.35;;
75320;SDS011;68337;52.196;5.660;2024-03-17T09:53:17;9.43;;;6.07;;
75320;SDS011;68337;52.196;5.660;2024-03-17T09:55:52;8.20;;;6.20;;
75320;SDS011;68337;52.196;5.660;2024-03-17T09:58:21;8.40;;;5.53;;
75320;SDS011;68337;52.196;5.660;2024-03-17T10:00:47;6.75;;;5.45;;
75320;SDS011;68337;52.196;5.660;2024-03-17T10:06:11;8.70;;;5.93;;
75320;SDS011;68337;52.196;5.660;2024-03-17T10:08:41;7.80;;;6.00;;
75320;SDS011;68337;52.196;5.660;2024-03-17T10:11:09;7.38;;;5.53;;
75320;SDS011;68337;52.196;5.660;2024-03-17T10:13:37;8.95;;;5.45;;
75320;SDS011;68337;52.196;5.660;2024-03-17T10:16:03;8.25;;;6.10;;
75320;SDS011;68337;52.196;5.660;2024-03-17T10:18:29;10.98;;;5.82;;
75320;SDS011;68337;52.196;5.660;2024-03-17T10:20:56;7.47;;;6.03;;
75320;SDS011;68337;52.196;5.660;2024-03-17T10:23:23;7.63;;;5.70;;
75320;SDS011;68337;52.196;5.660;2024-03-17T10:25:49;8.55;;;6.10;;
75320;SDS011;68337;52.196;5.660;2024-03-17T10:28:16;6.38;;;5.55;;
75320;SDS011;68337;52.196;5.660;2024-03-17T10:30:42;6.32;;;5.57;;
75320;SDS011;68337;52.196;5.660;2024-03-17T10:33:23;5.43;;;4.93;;
75320;SDS011;68337;52.196;5.660;2024-03-17T10:35:51;10.90;;;5.53;;
75320;SDS011;68337;52.196;5.660;2024-03-17T10:38:25;5.82;;;5.20;;
75320;SDS011;68337;52.196;5.660;2024-03-17T10:40:51;6.80;;;5.43;;
75320;SDS011;68337;52.196;5.660;2024-03-17T10:43:17;7.00;;;5.15;;
75320;SDS011;68337;52.196;5.660;2024-03-17T10:45:42;8.57;;;4.97;;
75320;SDS011;68337;52.196;5.660;2024-03-17T10:48:08;7.32;;;5.35;;
75320;SDS011;68337;52.196;5.660;2024-03-17T10:50:39;7.57;;;4.80;;
75320;SDS011;68337;52.196;5.660;2024-03-17T10:53:05;9.18;;;5.20;;
75320;SDS011;68337;52.196;5.660;2024-03-17T10:55:44;6.13;;;5.13;;
75320;SDS011;68337;52.196;5.660;2024-03-17T10:58:29;5.72;;;5.03;;
75320;SDS011;68337;52.196;5.660;2024-03-17T11:01:06;6.43;;;5.78;;
75320;SDS011;68337;52.196;5.660;2024-03-17T11:03:32;5.28;;;4.60;;
75320;SDS011;68337;52.196;5.660;2024-03-17T11:06:00;7.55;;;4.63;;
75320;SDS011;68337;52.196;5.660;2024-03-17T11:08:29;12.07;;;6.60;;
75320;SDS011;68337;52.196;5.660;2024-03-17T11:10:58;7.18;;;5.60;;
75320;SDS011;68337;52.196;5.660;2024-03-17T11:13:24;5.30;;;4.80;;
75320;SDS011;68337;52.196;5.660;2024-03-17T11:15:53;5.25;;;4.80;;
75320;SDS011;68337;52.196;5.660;2024-03-17T11:21:05;6.95;;;4.55;;
75320;SDS011;68337;52.196;5.660;2024-03-17T11:23:36;12.13;;;5.03;;
75320;SDS011;68337;52.196;5.660;2024-03-17T11:26:02;5.82;;;4.82;;
75320;SDS011;68337;52.196;5.660;2024-03-17T11:34:05;5.50;;;4.40;;
75320;SDS011;68337;52.196;5.660;2024-03-17T11:36:51;7.60;;;5.15;;
75320;SDS011;68337;52.196;5.660;2024-03-17T11:39:18;8.70;;;5.18;;
75320;SDS011;68337;52.196;5.660;2024-03-17T11:41:52;6.45;;;4.70;;
75320;SDS011;68337;52.196;5.660;2024-03-17T11:47:06;5.75;;;5.13;;
75320;SDS011;68337;52.196;5.660;2024-03-17T11:52:04;7.32;;;5.25;;
75320;SDS011;68337;52.196;5.660;2024-03-17T11:54:35;9.23;;;4.95;;
75320;SDS011;68337;52.196;5.660;2024-03-17T11:57:02;7.25;;;5.10;;
75320;SDS011;68337;52.196;5.660;2024-03-17T11:59:33;5.47;;;4.15;;
75320;SDS011;68337;52.196;5.660;2024-03-17T12:01:59;8.40;;;6.00;;
75320;SDS011;68337;52.196;5.660;2024-03-17T12:04:27;5.60;;;5.00;;
75320;SDS011;68337;52.196;5.660;2024-03-17T12:06:54;6.38;;;4.68;;
75320;SDS011;68337;52.196;5.660;2024-03-17T12:09:23;6.68;;;5.13;;
75320;SDS011;68337;52.196;5.660;2024-03-17T12:11:57;7.05;;;5.05;;
75320;SDS011;68337;52.196;5.660;2024-03-17T12:14:25;6.50;;;5.03;;
75320;SDS011;68337;52.196;5.660;2024-03-17T12:16:51;6.30;;;5.03;;
75320;SDS011;68337;52.196;5.660;2024-03-17T12:19:19;6.35;;;4.65;;
75320;SDS011;68337;52.196;5.660;2024-03-17T12:21:49;5.72;;;5.15;;
75320;SDS011;68337;52.196;5.660;2024-03-17T12:26:45;10.23;;;5.38;;
75320;SDS011;68337;52.196;5.660;2024-03-17T12:29:41;5.25;;;4.80;;
75320;SDS011;68337;52.196;5.660;2024-03-17T12:32:01;8.45;;;6.15;;
75320;SDS011;68337;52.196;5.660;2024-03-17T12:34:31;8.18;;;5.32;;
75320;SDS011;68337;52.196;5.660;2024-03-17T12:36:58;8.35;;;5.18;;
75320;SDS011;68337;52.196;5.660;2024-03-17T12:39:25;9.07;;;5.07;;
75320;SDS011;68337;52.196;5.660;2024-03-17T12:42:02;6.32;;;5.53;;
75320;SDS011;68337;52.196;5.660;2024-03-17T12:44:32;7.63;;;5.43;;
75320;SDS011;68337;52.196;5.660;2024-03-17T12:46:59;8.60;;;5.32;;
75320;SDS011;68337;52.196;5.660;2024-03-17T12:49:29;8.18;;;5.38;;
75320;SDS011;68337;52.196;5.660;2024-03-17T12:51:55;8.38;;;5.65;;
75320;SDS011;68337;52.196;5.660;2024-03-17T12:54:23;5.00;;;4.60;;
75320;SDS011;68337;52.196;5.660;2024-03-17T12:56:50;5.28;;;4.88;;
75320;SDS011;68337;52.196;5.660;2024-03-17T12:59:37;6.53;;;5.47;;
75320;SDS011;68337;52.196;5.660;2024-03-17T13:02:22;10.55;;;6.53;;
75320;SDS011;68337;52.196;5.660;2024-03-17T13:07:40;8.73;;;5.55;;
75320;SDS011;68337;52.196;5.660;2024-03-17T13:10:06;9.70;;;6.68;;
75320;SDS011;68337;52.196;5.660;2024-03-17T13:12:33;9.18;;;6.68;;
75320;SDS011;68337;52.196;5.660;2024-03-17T13:14:59;7.13;;;5.93;;
75320;SDS011;68337;52.196;5.660;2024-03-17T13:17:26;9.32;;;5.82;;
75320;SDS011;68337;52.196;5.660;2024-03-17T13:19:54;6.20;;;5.60;;
75320;SDS011;68337;52.196;5.660;2024-03-17T13:22:20;7.35;;;5.72;;
75320;SDS011;68337;52.196;5.660;2024-03-17T13:24:45;6.97;;;5.68;;
75320;SDS011;68337;52.196;5.660;2024-03-17T13:27:12;6.00;;;5.32;;
75320;SDS011;68337;52.196;5.660;2024-03-17T13:29:39;7.18;;;6.03;;
75320;SDS011;68337;52.196;5.660;2024-03-17T13:32:09;10.63;;;6.20;;
75320;SDS011;68337;52.196;5.660;2024-03-17T13:34:35;7.80;;;6.15;;
75320;SDS011;68337;52.196;5.660;2024-03-17T13:37:00;11.05;;;5.97;;
75320;SDS011;68337;52.196;5.660;2024-03-17T13:39:29;7.90;;;6.00;;
75320;SDS011;68337;52.196;5.660;2024-03-17T13:41:58;6.95;;;6.00;;
75320;SDS011;68337;52.196;5.660;2024-03-17T13:44:29;9.27;;;6.78;;
75320;SDS011;68337;52.196;5.660;2024-03-17T13:46:56;8.70;;;5.55;;
75320;SDS011;68337;52.196;5.660;2024-03-17T13:49:23;8.43;;;5.95;;
75320;SDS011;68337;52.196;5.660;2024-03-17T13:51:49;7.85;;;6.00;;
75320;SDS011;68337;52.196;5.660;2024-03-17T13:54:15;8.80;;;5.88;;
75320;SDS011;68337;52.196;5.660;2024-03-17T13:56:41;6.95;;;5.88;;
75320;SDS011;68337;52.196;5.660;2024-03-17T13:59:07;10.27;;;6.10;;
75320;SDS011;68337;52.196;5.660;2024-03-17T14:01:33;9.90;;;6.75;;
75320;SDS011;68337;52.196;5.660;2024-03-17T14:03:59;8.00;;;6.38;;
75320;SDS011;68337;52.196;5.660;2024-03-17T14:06:25;14.43;;;6.55;;
75320;SDS011;68337;52.196;5.660;2024-03-17T14:08:50;8.88;;;6.65;;
75320;SDS011;68337;52.196;5.660;2024-03-17T14:11:16;6.82;;;6.20;;
75320;SDS011;68337;52.196;5.660;2024-03-17T14:13:42;10.27;;;6.35;;
75320;SDS011;68337;52.196;5.660;2024-03-17T14:16:07;9.27;;;6.70;;
75320;SDS011;68337;52.196;5.660;2024-03-17T14:18:33;8.20;;;6.05;;
75320;SDS011;68337;52.196;5.660;2024-03-17T14:20:59;7.05;;;5.97;;
75320;SDS011;68337;52.196;5.660;2024-03-17T14:23:24;9.48;;;6.60;;
75320;SDS011;68337;52.196;5.660;2024-03-17T14:25:50;9.50;;;6.78;;
75320;SDS011;68337;52.196;5.660;2024-03-17T14:28:16;8.48;;;6.53;;
75320;SDS011;68337;52.196;5.660;2024-03-17T14:30:42;8.73;;;5.80;;
75320;SDS011;68337;52.196;5.660;2024-03-17T14:33:07;7.95;;;5.75;;
75320;SDS011;68337;52.196;5.660;2024-03-17T14:35:34;7.85;;;6.18;;
75320;SDS011;68337;52.196;5.660;2024-03-17T14:38:01;12.45;;;8.07;;
75320;SDS011;68337;52.196;5.660;2024-03-17T14:40:27;8.43;;;7.18;;
75320;SDS011;68337;52.196;5.660;2024-03-17T14:42:54;8.75;;;6.50;;
75320;SDS011;68337;52.196;5.660;2024-03-17T14:45:21;10.35;;;6.35;;
75320;SDS011;68337;52.196;5.660;2024-03-17T14:47:53;10.25;;;5.97;;
75320;SDS011;68337;52.196;5.660;2024-03-17T14:50:19;9.73;;;6.57;;
75320;SDS011;68337;52.196;5.660;2024-03-17T14:52:45;10.48;;;6.45;;
75320;SDS011;68337;52.196;5.660;2024-03-17T14:55:11;8.52;;;6.20;;
75320;SDS011;68337;52.196;5.660;2024-03-17T14:57:38;8.98;;;5.68;;
75320;SDS011;68337;52.196;5.660;2024-03-17T15:00:06;9.18;;;6.10;;
75320;SDS011;68337;52.196;5.660;2024-03-17T15:02:41;10.90;;;6.20;;
75320;SDS011;68337;52.196;5.660;2024-03-17T15:05:07;14.18;;;6.07;;
75320;SDS011;68337;52.196;5.660;2024-03-17T15:07:34;11.02;;;5.82;;